Latest Weather Observations for Rockhampton

IDQ60801

Issued at 1:02 pm EST Tuesday 3 May 2016 (issued every 30 minutes, with the page automatically refreshed every 10 minutes)

About weather observations | Map of weather stations | Latest weather observations for QLD | Other Formats
Station Details ID: 039083 Name: ROCKHAMPTON AERO Lat: -23.38 Lon: 150.48 Height: 10.4 m
Data from the previous 72 hours. | See also: Recent months at Rockhampton
Date/Time
EST
Temp
°C
App
Temp
°C
Dew
Point
Rel
Hum
%
Delta-T
°C
Wind Press
QNH
hPa
Press
MSL
hPa
Rain
since 9 am
mm
Dir
 
Spd
km/h
Gust
km/h
Spd
kts
Gust
kts
03/12:30pm 30.5 31.1 17.6 46 8.2 NNW 11 15 6 8 1012.4 1012.4 0.0
03/12:00pm 30.4 30.9 18.3 48 7.8 NNW 13 19 7 10 1012.7 1012.7 0.0
03/11:30am 29.4 30.6 18.3 51 7.1 WNW 9 17 5 9 1013.5 1013.5 0.0
03/11:00am 29.2 31.1 19.0 54 6.6 W 7 15 4 8 1014.2 1014.2 0.0
03/10:30am 28.3 30.3 19.9 60 5.5 NW 9 13 5 7 1014.9 1014.9 0.0
03/10:00am 27.6 29.8 20.3 64 4.8 NW 9 15 5 8 1015.4 1015.4 0.0
03/09:30am 25.5 27.9 20.9 75 3.0 NNW 9 13 5 7 1015.3 1015.3 0.0
03/09:00am 24.9 28.0 21.4 81 2.3 NNW 7 11 4 6 1015.5 1015.5 0.0
03/08:30am 23.8 26.9 21.4 86 1.6 WNW 7 11 4 6 1015.6 1015.6 0.0
03/08:00am 23.6 26.9 21.5 88 1.4 NNW 6 9 3 5 1015.4 1015.4 0.0
03/07:30am 21.7 24.8 21.1 96 0.4 SW 6 7 3 4 1015.2 1015.2 0.0
03/07:00am 21.1 25.1 20.6 97 0.3 CALM 0 0 0 0 1015.1 1015.1 0.0
03/06:40am 20.8 24.7 20.3 97 0.3 CALM 0 0 0 0 1014.8 1014.8 0.0
03/06:30am 20.7 24.6 20.4 98 0.2 CALM 0 6 0 3 1014.8 1014.8 0.0
03/06:00am 20.8 24.7 20.3 97 0.3 CALM 0 0 0 0 1014.5 1014.5 0.0
03/05:50am 20.7 24.5 20.1 96 0.4 CALM 0 0 0 0 1014.2 1014.2 0.0
03/05:30am 20.9 24.8 20.3 96 0.4 CALM 0 0 0 0 1014.0 1014.0 0.0
03/05:00am 21.3 25.0 20.7 96 0.4 NW 2 7 1 4 1013.8 1013.8 0.0
03/04:30am 21.1 23.8 20.3 95 0.5 WNW 6 7 3 4 1013.5 1013.5 0.0
03/04:00am 21.4 24.9 20.3 93 0.7 WNW 2 6 1 3 1013.6 1013.6 0.0
03/03:30am 21.8 24.5 20.7 93 0.7 WNW 7 9 4 5 1013.7 1013.7 0.0
03/03:00am 22.0 25.6 20.6 92 0.9 SW 2 9 1 5 1013.6 1013.6 0.0
03/02:30am 23.0 25.7 20.7 87 1.5 SSE 7 11 4 6 1014.1 1014.1 0.0
03/02:00am 22.3 24.1 20.4 89 1.2 NE 11 13 6 7 1014.3 1014.3 0.0
03/01:30am 22.9 26.4 20.4 86 1.6 SSW 2 6 1 3 1015.1 1015.1 0.0
03/01:00am 22.6 24.1 20.6 88 1.3 S 13 22 7 12 1015.3 1015.3 0.0
03/12:30am 22.4 26.5 20.7 90 1.1 CALM 0 0 0 0 1014.8 1014.8 0.0
03/12:00am 21.8 24.2 19.6 87 1.4 N 6 9 3 5 1015.0 1015.0 0.0
 
Date/Time
EST
Temp
°C
App
Temp
°C
Dew
Point
Rel
Hum
%
Delta-T
°C
Wind Press
QNH
hPa
Press
MSL
hPa
Rain
since 9 am
mm
Dir
 
Spd
km/h
Gust
km/h
Spd
kts
Gust
kts
02/11:30pm 22.4 25.9 19.6 84 1.8 CALM 0 0 0 0 1015.4 1015.4 0.0
02/11:00pm 22.7 25.9 20.4 87 1.5 N 4 6 2 3 1015.5 1015.5 0.0
02/10:30pm 23.4 26.1 21.4 88 1.3 N 9 11 5 6 1015.3 1015.3 0.0
02/10:00pm 23.8 26.5 21.4 86 1.6 N 9 11 5 6 1015.3 1015.3 0.0
02/09:30pm 23.8 25.8 20.7 83 2.0 NW 11 13 6 7 1015.2 1015.2 0.0
02/09:00pm 24.6 26.6 20.0 75 3.0 NNW 9 13 5 7 1015.1 1015.1 0.0
02/08:30pm 25.2 25.2 18.9 68 4.0 NNE 17 20 9 11 1014.6 1014.6 0.0
02/08:00pm 24.9 26.0 18.9 69 3.8 NNE 11 13 6 7 1014.8 1014.8 0.0
02/07:30pm 25.3 26.3 19.4 70 3.8 NNE 13 17 7 9 1014.6 1014.6 0.0
02/07:00pm 25.9 26.3 19.0 65 4.4 NNE 15 19 8 10 1014.2 1014.2 0.0
02/06:30pm 26.2 26.8 18.5 62 4.9 NNE 13 17 7 9 1013.7 1013.7 0.0
02/06:00pm 26.9 26.8 17.9 57 5.7 NNE 15 20 8 11 1013.4 1013.4 0.0
02/05:30pm 27.9 28.2 18.0 55 6.3 NNE 13 17 7 9 1013.2 1013.2 0.0
02/05:00pm 29.5 29.3 17.5 48 7.6 NNE 15 19 8 10 1012.8 1012.8 0.0
02/04:30pm 30.3 30.2 17.8 47 8.0 NNE 15 19 8 10 1012.4 1012.4 0.0
02/04:00pm 31.6 30.9 17.3 42 9.1 NNE 17 22 9 12 1012.2 1012.2 0.0
02/03:30pm 32.2 32.5 17.1 40 9.6 NNE 11 17 6 9 1012.1 1012.1 0.0
02/03:00pm 32.0 32.8 17.2 41 9.4 E 9 13 5 7 1012.1 1012.1 0.0
02/02:30pm 31.9 32.6 17.9 43 9.0 E 11 17 6 9 1012.3 1012.3 0.0
02/02:00pm 31.7 32.9 18.2 44 8.7 ENE 9 17 5 9 1012.7 1012.7 0.0
02/01:30pm 31.7 33.0 18.4 45 8.6 N 9 13 5 7 1013.1 1013.1 0.0
02/01:00pm 32.0 33.5 19.0 46 8.5 NW 9 17 5 9 1013.5 1013.5 0.0
02/12:30pm 31.4 33.0 19.1 48 8.0 ESE 9 13 5 7 1014.0 1014.0 0.0
02/12:00pm 30.2 31.8 19.1 51 7.2 E 9 15 5 8 1014.6 1014.6 0.0
02/11:30am 29.7 32.1 20.0 56 6.4 W 7 13 4 7 1015.2 1015.2 0.0
02/11:00am 29.4 31.1 20.1 57 6.1 NNW 11 19 6 10 1015.7 1015.7 0.0
02/10:30am 28.7 31.8 21.0 63 5.1 N 6 9 3 5 1016.2 1016.2 0.0
02/10:00am 27.1 30.0 20.7 68 4.2 ENE 6 9 3 5 1016.7 1016.7 0.0
02/09:30am 26.0 29.6 21.2 75 3.2 W 4 7 2 4 1017.0 1017.0 0.0
02/09:00am 26.1 29.9 21.7 77 2.9 ENE 4 7 2 4 1016.9 1016.9 0.0
02/08:30am 25.0 30.0 22.5 86 1.7 CALM 0 0 0 0 1017.0 1017.0 0.0
02/08:00am 23.6 28.7 22.6 94 0.7 CALM 0 0 0 0 1016.8 1016.8 0.0
02/07:41am 22.9 27.8 22.3 96 0.4 CALM 0 0 0 0 1016.6 1016.6 0.0
02/07:30am 22.8 27.8 22.5 98 0.2 CALM 0 0 0 0 1016.5 1016.5 0.0
02/07:08am 22.3 27.0 22.0 98 0.2 CALM 0 0 0 0 1016.6 1016.6 0.0
02/07:00am 22.1 26.4 21.9 99 0.1 S 2 6 1 3 1016.5 1016.5 0.0
02/06:57am 22.1 26.0 21.9 99 0.1 S 4 6 2 3 1016.5 1016.5 0.0
02/06:44am 22.0 25.9 21.8 99 0.1 S 4 6 2 3 1016.4 1016.4 0.0
02/06:30am 22.0 25.5 21.8 99 0.1 S 6 7 3 4 1016.2 1016.2 0.0
02/06:24am 21.9 25.3 21.7 99 0.1 S 6 7 3 4 1016.2 1016.2 0.0
02/06:00am 21.8 25.9 21.6 99 0.1 S 2 6 1 3 1015.8 1015.8 0.0
02/05:30am 21.7 25.0 21.5 99 0.1 SSW 6 7 3 4 1015.3 1015.3 0.0
02/05:00am 21.4 25.7 21.1 98 0.2 CALM 0 6 0 3 1014.9 1014.9 0.0
02/04:30am 21.4 25.7 21.1 98 0.2 CALM 0 0 0 0 1014.6 1014.6 0.0
02/04:00am 21.4 24.5 21.1 98 0.2 SSW 6 7 3 4 1014.3 1014.3 0.0
02/03:38am 21.5 24.3 20.9 96 0.4 SSW 7 9 4 5 1014.7 1014.7 0.0
02/03:30am 21.8 25.7 21.2 96 0.4 ESE 2 9 1 5 1014.7 1014.7 0.0
02/03:04am 22.1 25.5 21.6 97 0.3 ENE 6 7 3 4 1014.5 1014.5 0.0
02/03:03am 22.2 25.6 21.7 97 0.3 ENE 6 9 3 5 1014.5 1014.5 0.0
02/03:00am 22.1 25.6 21.8 98 0.2 ENE 6 9 3 5 1014.5 1014.5 0.0
02/02:50am 22.1 25.5 21.6 97 0.3 E 6 9 3 5 1014.5 1014.5 0.0
02/02:46am 22.2 25.7 21.9 98 0.2 E 6 9 3 5 1014.5 1014.5 0.0
02/02:32am 22.4 25.7 21.8 96 0.4 ESE 7 9 4 5 1014.7 1014.7 0.0
02/02:30am 22.4 25.7 21.8 96 0.4 ESE 7 9 4 5 1014.8 1014.8 0.0
02/02:00am 22.2 26.0 21.6 96 0.4 S 4 6 2 3 1015.0 1015.0 0.0
02/01:30am 22.3 26.9 21.7 96 0.4 CALM 0 0 0 0 1015.3 1015.3 0.0
02/01:00am 22.5 27.2 21.9 96 0.4 CALM 0 0 0 0 1015.6 1015.6 0.0
02/12:30am 22.3 26.9 21.7 96 0.4 CALM 0 0 0 0 1016.0 1016.0 0.0
02/12:00am 22.8 26.7 21.9 95 0.6 SSW 4 7 2 4 1016.1 1016.1 0.0
 
Date/Time
EST
Temp
°C
App
Temp
°C
Dew
Point
Rel
Hum
%
Delta-T
°C
Wind Press
QNH
hPa
Press
MSL
hPa
Rain
since 9 am
mm
Dir
 
Spd
km/h
Gust
km/h
Spd
kts
Gust
kts
01/11:30pm 22.8 27.4 21.7 93 0.7 CALM 0 0 0 0 1016.4 1016.4 0.0
01/11:00pm 22.9 26.3 21.7 93 0.8 SW 6 9 3 5 1016.6 1016.6 0.0
01/10:30pm 23.4 27.7 21.9 91 1.0 ESE 2 7 1 4 1016.6 1016.6 0.0
01/10:00pm 23.7 28.4 21.9 90 1.2 CALM 0 0 0 0 1016.4 1016.4 0.0
01/09:30pm 23.7 27.1 21.6 88 1.4 ENE 6 7 3 4 1016.6 1016.6 0.0
01/09:00pm 24.4 27.7 21.5 84 1.9 E 6 7 3 4 1016.8 1016.8 0.0
01/08:30pm 24.4 28.1 22.2 87 1.5 N 6 7 3 4 1016.9 1016.9 0.0
01/08:00pm 24.7 27.5 22.3 86 1.6 NNW 11 15 6 8 1016.6 1016.6 0.0
01/07:30pm 25.0 27.7 22.2 84 1.9 NNW 11 15 6 8 1016.3 1016.3 0.0
01/07:00pm 25.1 27.0 22.1 83 2.0 N 15 20 8 11 1015.8 1015.8 0.0
01/06:30pm 25.1 26.7 22.1 83 2.0 NNE 17 20 9 11 1015.4 1015.4 0.0
01/06:00pm 25.9 26.8 21.9 78 2.7 N 20 33 11 18 1015.2 1015.2 0.0
01/05:30pm 26.6 27.3 21.5 73 3.4 NNE 20 26 11 14 1015.0 1015.0 0.0
01/05:00pm 28.3 29.3 21.7 67 4.4 NNE 19 24 10 13 1014.5 1014.5 0.0
01/04:30pm 30.3 31.4 20.5 55 6.5 N 15 19 8 10 1014.4 1014.4 0.0
01/04:00pm 31.8 33.4 19.1 47 8.3 NNE 9 13 5 7 1013.9 1013.9 0.0
01/03:30pm 32.1 33.2 17.0 40 9.6 WNW 7 13 4 7 1013.5 1013.5 0.0
01/03:00pm 32.0 33.1 17.2 41 9.4 W 7 13 4 7 1013.7 1013.7 0.0
01/02:30pm 31.2 31.4 17.6 44 8.7 NW 13 19 7 10 1013.7 1013.7 0.0
01/02:00pm 31.5 32.1 17.8 44 8.8 NNW 11 19 6 10 1014.0 1014.0 0.0
01/01:30pm 31.4 33.0 18.2 45 8.5 N 7 13 4 7 1014.3 1014.3 0.0
01/01:00pm 31.4 32.5 18.8 47 8.2 W 11 22 6 12 1014.9 1014.9 0.0
01/12:30pm 30.2 32.4 19.1 51 7.2 NNW 6 13 3 7 1015.3 1015.3 0.0
01/12:00pm 30.8 32.7 19.7 51 7.3 N 9 15 5 8 1015.8 1015.8 0.0
01/11:30am 29.1 32.6 20.3 59 5.8 WSW 2 9 1 5 1016.4 1016.4 0.0
01/11:00am 29.0 31.7 20.3 59 5.7 NNE 6 9 3 5 1017.0 1017.0 0.0
01/10:30am 26.9 29.6 20.7 69 4.1 WSW 7 11 4 6 1017.6 1017.6 0.0
01/10:00am 27.0 29.8 20.9 69 4.0 E 7 11 4 6 1018.1 1018.1 0.0
01/09:30am 26.0 28.6 21.2 75 3.2 ESE 9 11 5 6 1018.3 1018.3 0.0
01/09:00am 25.6 28.7 21.4 77 2.8 SE 7 11 4 6 1018.6 1018.6 0.0
01/08:30am 25.1 27.9 21.5 80 2.4 SE 9 13 5 7 1018.5 1018.5 0.0
01/08:00am 24.3 27.0 21.4 84 1.9 SE 9 15 5 8 1018.3 1018.3 0.0
01/07:30am 23.3 26.5 21.6 90 1.1 SE 7 9 4 5 1018.2 1018.2 0.0
01/07:00am 21.9 25.9 21.3 96 0.4 SSE 2 6 1 3 1017.9 1017.9 0.0
01/06:30am 20.6 24.4 20.1 97 0.3 CALM 0 0 0 0 1017.7 1017.7 0.0
01/06:00am 21.2 24.0 20.4 95 0.5 S 6 6 3 3 1017.5 1017.5 0.0
01/05:30am 21.3 25.3 20.5 95 0.5 CALM 0 0 0 0 1017.2 1017.2 0.0
01/05:00am 21.7 25.8 20.8 95 0.6 CALM 0 0 0 0 1017.0 1017.0 0.0
01/04:30am 21.8 24.7 20.7 93 0.7 SSW 6 7 3 4 1016.8 1016.8 0.0
01/04:00am 21.9 25.3 21.0 95 0.6 SE 4 7 2 4 1016.7 1016.7 0.0
01/03:30am 22.2 24.9 21.3 95 0.6 ESE 9 13 5 7 1016.8 1016.8 0.0
01/03:00am 22.6 25.4 21.5 93 0.7 ESE 9 13 5 7 1016.9 1016.9 0.0
01/02:30am 22.7 25.9 21.6 93 0.7 SSE 7 9 4 5 1017.0 1017.0 0.0
01/02:00am 22.7 25.6 21.8 95 0.6 SSE 9 11 5 6 1017.0 1017.0 0.0
01/01:30am 22.9 25.9 22.0 95 0.6 SE 9 13 5 7 1017.1 1017.1 0.0
01/01:00am 22.9 26.0 22.1 95 0.5 SE 9 11 5 6 1017.3 1017.3 0.0
01/12:30am 22.7 25.8 22.1 96 0.4 ESE 9 11 5 6 1017.4 1017.4 0.0
01/12:00am 22.7 26.0 21.9 95 0.5 ESE 7 11 4 6 1017.5 1017.5 0.0
 
Date/Time
EST
Temp
°C
App
Temp
°C
Dew
Point
Rel
Hum
%
Delta-T
°C
Wind Press
QNH
hPa
Press
MSL
hPa
Rain
since 9 am
mm
Dir
 
Spd
km/h
Gust
km/h
Spd
kts
Gust
kts
30/11:30pm 22.8 25.8 21.9 95 0.6 SE 9 13 5 7 1017.7 1017.7 0.0
30/11:00pm 22.9 25.5 22.0 95 0.6 ESE 11 17 6 9 1017.9 1017.9 0.0
30/10:30pm 23.2 25.7 21.8 92 0.9 ESE 11 17 6 9 1018.0 1018.0 0.0
30/10:00pm 23.5 26.5 22.0 91 1.0 ESE 9 15 5 8 1018.0 1018.0 0.0
30/09:30pm 23.5 26.4 21.8 90 1.1 E 9 15 5 8 1017.9 1017.9 0.0
30/09:00pm 23.6 25.8 21.9 90 1.1 ESE 13 19 7 10 1017.9 1017.9 0.0
30/08:30pm 23.8 26.0 21.8 88 1.3 ESE 13 17 7 9 1017.9 1017.9 0.0
30/08:00pm 24.1 27.2 21.4 85 1.8 ESE 7 11 4 6 1017.7 1017.7 0.0
30/07:30pm 24.2 26.7 21.0 82 2.1 ESE 9 11 5 6 1017.4 1017.4 0.0
30/07:00pm 24.6 27.1 21.1 81 2.3 E 9 13 5 7 1017.2 1017.2 0.0
30/06:30pm 25.3 27.0 20.2 73 3.3 ESE 11 15 6 8 1016.8 1016.8 0.0
30/06:00pm 25.7 27.7 20.0 71 3.7 ENE 9 13 5 7 1016.4 1016.4 0.0
30/05:30pm 26.1 28.3 20.4 71 3.7 E 9 15 5 8 1016.1 1016.1 0.0
30/05:00pm 27.0 27.9 20.1 66 4.5 E 15 24 8 13 1016.0 1016.0 0.0
30/04:30pm 27.7 28.1 19.9 62 5.1 E 17 22 9 12 1015.8 1015.8 0.0
30/04:00pm 28.4 28.3 19.5 58 5.8 E 19 24 10 13 1015.6 1015.6 0.0
30/03:30pm 28.9 29.2 19.5 57 6.1 E 17 24 9 13 1015.5 1015.5 0.0
30/03:00pm 29.8 30.3 19.2 53 6.9 E 15 24 8 13 1015.4 1015.4 0.0
30/02:30pm 29.5 29.5 19.0 53 6.8 ESE 17 24 9 13 1015.4 1015.4 0.0
30/02:00pm 30.0 30.0 18.9 51 7.2 E 17 26 9 14 1015.5 1015.5 0.0
30/01:30pm 29.6 30.5 19.3 54 6.7 ENE 13 17 7 9 1015.9 1015.9 0.0

Other Formats:

Comma delimited format used in spreadsheet applications
http://www.bom.gov.au/fwo/IDQ60801/IDQ60801.94374.axf

JavaScript Object Notation format (JSON) in row-major order
http://www.bom.gov.au/fwo/IDQ60801/IDQ60801.94374.json